Kolmaarden Stroemsfors, Sweden

10:01 PM CET on January 27, 2015 (GMT +0100)
kolmarden | Change Station
CLOSE
Current Station
Personal Weather Station
Location: Östergötlands Län, ÖSTERGöTLANDS LäN
Elevation: 121 ft
Nearby Weather Stations

Elev 121 ft 58.66 °N, 16.39 °E | Updated 1 minute ago

Overcast
Overcast
30.7 °F
Feels Like 25 °F
N
5.4
Wind Variable Wind from SW
Gusts 5.4 mph

Today
High -- | Low -- °F
--% Chance of Precip.
Yesterday
High -- | Low -- °F
Precip. -- in
8:12 AM 4:02 PM
First Quarter, 57% visible
Pressure 29.80 in
Visibility 6.2 miles
Clouds Overcast 400 ft
Windchill 25 °F
Dew Point 30 °F
Humidity 98%
Rainfall 0.00 in
Snow Depth Not available.
UV 0 out of 12
Pollen Not available.
Air Quality Not available.
Flu Activity Not available.
METAR ESSP 272050Z 24009KT 9999 OVC004 M01/M01 Q1009

More Conditions Fewer Conditions

Pressure 29.80 in
Visibility 6.2 miles
Clouds Overcast 400 ft
Windchill 25 °F
Dew Point 30 °F
Humidity 98%
Rainfall 0.00 in
Snow Depth Not available.
UV 0 out of 12
Pollen Not available.
Air Quality Not available.
Flu Activity Not available.
METAR ESSP 272050Z 24009KT 9999 OVC004 M01/M01 Q1009

More Conditions Fewer Conditions

10-Day Weather Forecast

Almanac

Astronomy

Jan. 27, 2015 Rise Set
Actual Time
Civil Twilight
Nautical Twilight
Astronomical Twilight
Moon
Length of Visible Light
Length of Day
Tomorrow will be .
, % of the Moon is Illuminated

Today's Extremes

Country Highs Country Lows

Community

WunderPhotos

Upload Photos

1,790,906 photos uploaded!

WunderBlogs® & News

Nearby

Air Quality

  Air Quality AQ Index Pollutant
Not available.

Snow Depth

Station Depth Elevation

Earthquake Activity

City Distance Mag. Time & Date
Minimum magnitude displayed is 2.5.

Coastal Water Temperatures

Place Temperature

Nearby Weather Stations